Time;durP1;ratioP1;P1;durP2;ratioP2;P2;SDS_P1;SDS_P2;PMS_P1;PMS_P2;Temp;Humidity;BMP_temperature;BMP_pressure;BME280_temperature;BME280_humidity;BME280_pressure;Samples;Min_cycle;Max_cycle;Signal;HPM_P1;HPM_P2
2020/12/08 00:00:07;;;;;;;10.00;9.30;;;;;;;;;;5031259;28;20468;-63
2020/12/08 00:02:33;;;;;;;10.10;9.40;;;;;;;;;;5031808;28;20488;-63
2020/12/08 00:05:00;;;;;;;10.47;9.67;;;;;;;;;;5029809;28;20492;-63
2020/12/08 00:07:27;;;;;;;11.17;10.27;;;;;;;;;;5031214;28;20456;-63
2020/12/08 00:09:53;;;;;;;10.90;10.10;;;;;;;;;;5030131;28;20480;-63
2020/12/08 00:12:23;;;;;;;10.77;9.87;;;;;;;;;;5031404;28;20465;-63
2020/12/08 00:14:50;;;;;;;10.20;9.40;;;;;;;;;;5027323;28;20453;-63
2020/12/08 00:17:17;;;;;;;10.10;9.40;;;;;;;;;;5030773;28;20472;-63
2020/12/08 00:19:44;;;;;;;10.37;9.57;;;;;;;;;;5029574;28;20831;-63
2020/12/08 00:22:10;;;;;;;11.10;10.30;;;;;;;;;;5029364;28;20499;-63
2020/12/08 00:24:37;;;;;;;9.80;9.07;;;;;;;;;;5028481;28;20472;-64
2020/12/08 00:27:04;;;;;;;10.07;9.27;;;;;;;;;;5030549;28;20829;-63
2020/12/08 00:29:31;;;;;;;10.00;9.30;;;;;;;;;;5031154;28;20449;-63
2020/12/08 00:31:58;;;;;;;9.87;9.17;;;;;;;;;;5029267;28;20480;-63
2020/12/08 00:34:24;;;;;;;10.43;9.63;;;;;;;;;;5029169;28;20468;-63
2020/12/08 00:36:51;;;;;;;10.97;10.07;;;;;;;;;;5028040;28;20469;-63
2020/12/08 00:39:18;;;;;;;11.20;9.73;;;;;;;;;;5014866;28;20460;-63
2020/12/08 00:41:47;;;;;;;10.40;9.60;;;;;;;;;;5029742;28;20995;-63
2020/12/08 00:44:13;;;;;;;11.57;10.67;;;;;;;;;;5030612;28;20488;-63
2020/12/08 00:46:41;;;;;;;10.87;9.97;;;;;;;;;;5033703;28;20460;-65
2020/12/08 00:49:07;;;;;;;11.27;10.37;;;;;;;;;;5033650;28;20448;-62
2020/12/08 00:51:34;;;;;;;10.70;9.90;;;;;;;;;;5033962;28;20483;-64
2020/12/08 00:54:01;;;;;;;10.13;9.43;;;;;;;;;;5034061;28;20476;-64
2020/12/08 00:56:31;;;;;;;10.20;9.50;;;;;;;;;;5034017;28;20510;-64
2020/12/08 00:58:57;;;;;;;11.50;10.60;;;;;;;;;;5035138;28;20488;-62
2020/12/08 01:01:24;;;;;;;10.63;9.77;;;;;;;;;;5031806;28;20869;-62
2020/12/08 01:03:52;;;;;;;10.20;9.40;;;;;;;;;;5034265;28;20507;-63
2020/12/08 01:06:18;;;;;;;10.53;9.50;;;;;;;;;;5033599;28;20467;-63
2020/12/08 01:08:45;;;;;;;9.90;9.20;;;;;;;;;;5035005;28;20469;-63
2020/12/08 01:11:12;;;;;;;10.90;10.00;;;;;;;;;;5031958;28;20495;-63
2020/12/08 01:13:39;;;;;;;10.03;9.27;;;;;;;;;;5033933;28;20448;-63
2020/12/08 01:16:05;;;;;;;10.20;9.40;;;;;;;;;;5034369;28;20444;-63
2020/12/08 01:18:33;;;;;;;10.57;9.77;;;;;;;;;;5033440;28;20953;-63
2020/12/08 01:21:00;;;;;;;11.20;10.30;;;;;;;;;;5034034;28;20493;-63
2020/12/08 01:23:27;;;;;;;9.37;8.67;;;;;;;;;;5032925;28;20508;-64
2020/12/08 01:25:54;;;;;;;10.00;9.20;;;;;;;;;;5032141;28;20472;-63
2020/12/08 01:28:20;;;;;;;11.10;10.20;;;;;;;;;;5034118;28;20453;-63
2020/12/08 01:30:48;;;;;;;11.10;10.20;;;;;;;;;;5032065;28;20492;-63
2020/12/08 01:33:15;;;;;;;10.90;10.10;;;;;;;;;;5033387;28;20535;-63
2020/12/08 01:35:43;;;;;;;11.67;10.53;;;;;;;;;;5031750;28;20476;-63
2020/12/08 01:38:10;;;;;;;10.33;9.53;;;;;;;;;;5033871;28;20444;-63
2020/12/08 01:40:37;;;;;;;10.80;10.00;;;;;;;;;;5032724;28;20475;-63
2020/12/08 01:43:04;;;;;;;11.40;10.47;;;;;;;;;;5033401;28;20498;-63
2020/12/08 01:45:30;;;;;;;10.60;9.70;;;;;;;;;;5051291;28;20951;-63
2020/12/08 01:47:58;;;;;;;9.97;9.17;;;;;;;;;;5032606;28;20465;-63
2020/12/08 01:50:24;;;;;;;10.27;9.47;;;;;;;;;;5031632;28;20495;-65
2020/12/08 01:52:51;;;;;;;10.87;10.00;;;;;;;;;;5033038;28;20471;-62
2020/12/08 01:55:19;;;;;;;10.63;9.90;;;;;;;;;;5032943;28;20473;-64
2020/12/08 01:57:45;;;;;;;11.07;10.07;;;;;;;;;;5032628;28;20457;-62
2020/12/08 02:00:12;;;;;;;10.70;9.90;;;;;;;;;;5033796;28;20961;-62
2020/12/08 02:02:38;;;;;;;9.80;9.07;;;;;;;;;;5032173;28;20484;-62
2020/12/08 02:05:05;;;;;;;11.20;10.30;;;;;;;;;;5033212;28;20445;-62
2020/12/08 02:07:32;;;;;;;11.20;10.30;;;;;;;;;;5031112;28;20476;-62
2020/12/08 02:09:59;;;;;;;10.30;9.50;;;;;;;;;;5031203;28;20468;-64
2020/12/08 02:12:26;;;;;;;11.40;10.50;;;;;;;;;;5032599;28;20983;-62
2020/12/08 02:14:53;;;;;;;10.90;9.90;;;;;;;;;;5031917;28;20465;-63
2020/12/08 02:17:19;;;;;;;11.50;10.60;;;;;;;;;;5031855;28;20471;-66
2020/12/08 02:19:46;;;;;;;11.23;10.23;;;;;;;;;;5032114;28;20451;-64
2020/12/08 02:22:14;;;;;;;10.87;10.07;;;;;;;;;;5032066;28;20499;-62
2020/12/08 02:24:40;;;;;;;10.60;9.80;;;;;;;;;;5028413;28;20468;-65
2020/12/08 02:27:07;;;;;;;10.60;9.80;;;;;;;;;;5043434;28;20456;-64
2020/12/08 02:29:34;;;;;;;11.40;10.50;;;;;;;;;;5039991;28;20468;-62
2020/12/08 02:32:00;;;;;;;10.90;10.10;;;;;;;;;;5033104;28;20487;-62
2020/12/08 02:34:27;;;;;;;11.07;10.20;;;;;;;;;;5031823;28;20495;-62
2020/12/08 02:36:57;;;;;;;11.13;10.20;;;;;;;;;;5032919;28;20463;-63
2020/12/08 02:39:25;;;;;;;10.80;9.87;;;;;;;;;;5030757;28;20472;-64
2020/12/08 02:41:51;;;;;;;10.57;9.77;;;;;;;;;;5012669;28;20928;-63
2020/12/08 02:44:18;;;;;;;10.40;9.60;;;;;;;;;;5025553;28;20500;-63
2020/12/08 02:46:48;;;;;;;11.73;10.73;;;;;;;;;;5032056;28;20970;-63
2020/12/08 02:49:16;;;;;;;9.57;8.87;;;;;;;;;;5032910;28;20467;-63
2020/12/08 02:51:42;;;;;;;11.10;10.20;;;;;;;;;;5031513;28;20492;-63
2020/12/08 02:54:09;;;;;;;11.07;10.17;;;;;;;;;;5030774;28;20474;-62
2020/12/08 02:56:36;;;;;;;11.30;10.50;;;;;;;;;;5032276;28;20453;-63
2020/12/08 02:59:03;;;;;;;11.27;10.40;;;;;;;;;;5021897;28;20455;-63
2020/12/08 03:01:30;;;;;;;11.20;10.30;;;;;;;;;;5032774;28;20480;-63
2020/12/08 03:03:56;;;;;;;11.03;10.20;;;;;;;;;;5032358;28;20839;-63
2020/12/08 03:06:23;;;;;;;10.00;9.30;;;;;;;;;;5031826;28;20469;-63
2020/12/08 03:08:50;;;;;;;10.53;9.73;;;;;;;;;;5034660;28;20925;-63
2020/12/08 03:11:16;;;;;;;11.50;10.60;;;;;;;;;;5020233;28;20575;-66
2020/12/08 03:13:44;;;;;;;10.80;9.80;;;;;;;;;;5034194;28;20449;-63
2020/12/08 03:16:11;;;;;;;11.37;10.40;;;;;;;;;;5033548;28;20506;-63
2020/12/08 03:18:40;;;;;;;10.40;9.70;;;;;;;;;;5033995;28;20472;-63
2020/12/08 03:21:07;;;;;;;10.97;10.17;;;;;;;;;;5032461;28;20488;-63
2020/12/08 03:23:33;;;;;;;10.97;10.17;;;;;;;;;;5031694;28;20481;-63
2020/12/08 03:26:00;;;;;;;11.03;10.23;;;;;;;;;;5030629;28;20465;-63
2020/12/08 03:28:27;;;;;;;11.60;10.57;;;;;;;;;;5031672;28;20462;-63
2020/12/08 03:30:54;;;;;;;11.40;10.50;;;;;;;;;;5031880;28;20468;-64
2020/12/08 03:33:21;;;;;;;11.53;10.63;;;;;;;;;;5031907;28;20449;-63
2020/12/08 03:35:47;;;;;;;11.50;10.60;;;;;;;;;;5031392;28;20472;-64
2020/12/08 03:38:14;;;;;;;11.63;10.73;;;;;;;;;;5031972;28;20457;-63
2020/12/08 03:40:41;;;;;;;11.23;10.33;;;;;;;;;;5029459;28;20468;-64
2020/12/08 03:43:07;;;;;;;11.27;10.47;;;;;;;;;;5031755;28;20487;-63
2020/12/08 03:45:34;;;;;;;11.90;11.00;;;;;;;;;;5031135;28;20818;-63
2020/12/08 03:48:01;;;;;;;10.80;9.90;;;;;;;;;;5031630;28;20463;-63
2020/12/08 03:50:28;;;;;;;12.23;11.23;;;;;;;;;;5028273;28;20465;-63
2020/12/08 03:52:57;;;;;;;12.00;11.00;;;;;;;;;;5031332;28;20483;-65
2020/12/08 03:55:23;;;;;;;11.10;10.30;;;;;;;;;;5030142;28;20472;-63
2020/12/08 03:57:50;;;;;;;10.90;10.00;;;;;;;;;;5032074;28;20453;-64
2020/12/08 04:00:16;;;;;;;11.63;10.77;;;;;;;;;;5030029;28;20471;-64
2020/12/08 04:02:43;;;;;;;12.10;11.10;;;;;;;;;;5031109;28;20492;-64
2020/12/08 04:05:10;;;;;;;12.37;11.47;;;;;;;;;;5030959;28;20499;-64
2020/12/08 04:07:37;;;;;;;13.20;12.20;;;;;;;;;;5014080;28;20473;-63
2020/12/08 04:10:04;;;;;;;12.60;11.70;;;;;;;;;;5028189;28;20472;-63
2020/12/08 04:12:30;;;;;;;12.07;11.20;;;;;;;;;;5031697;28;20460;-63
2020/12/08 04:14:57;;;;;;;12.10;11.20;;;;;;;;;;5029671;28;20465;-63
2020/12/08 04:17:24;;;;;;;12.57;11.67;;;;;;;;;;5029715;28;20499;-63
2020/12/08 04:19:50;;;;;;;13.10;12.10;;;;;;;;;;5032878;28;20820;-63
2020/12/08 04:22:18;;;;;;;12.40;11.50;;;;;;;;;;5032034;28;20489;-63
2020/12/08 04:24:44;;;;;;;13.10;12.10;;;;;;;;;;5033686;28;20491;-63
2020/12/08 04:27:11;;;;;;;13.37;12.37;;;;;;;;;;5035408;28;20451;-63
2020/12/08 04:29:37;;;;;;;13.00;12.00;;;;;;;;;;5034664;28;20459;-63
2020/12/08 04:32:04;;;;;;;12.57;11.57;;;;;;;;;;5035441;28;20468;-63
2020/12/08 04:34:31;;;;;;;13.57;12.57;;;;;;;;;;5034450;28;20788;-63
2020/12/08 04:36:59;;;;;;;13.80;12.70;;;;;;;;;;5034422;28;20467;-63
2020/12/08 04:39:26;;;;;;;13.67;12.67;;;;;;;;;;5033509;28;20547;-63
2020/12/08 04:41:53;;;;;;;14.07;12.80;;;;;;;;;;5033803;28;21021;-62
2020/12/08 04:44:20;;;;;;;14.03;13.03;;;;;;;;;;5034525;28;20852;-63
2020/12/08 04:46:47;;;;;;;13.50;12.50;;;;;;;;;;5034991;28;20822;-63
2020/12/08 04:49:14;;;;;;;14.83;13.70;;;;;;;;;;5033918;28;20464;-63
2020/12/08 04:51:41;;;;;;;15.00;13.90;;;;;;;;;;5034531;28;20511;-63
2020/12/08 04:54:08;;;;;;;14.93;13.57;;;;;;;;;;5034743;28;20451;-63
2020/12/08 04:56:36;;;;;;;15.20;14.00;;;;;;;;;;5032299;28;20999;-63
2020/12/08 04:59:02;;;;;;;15.40;14.10;;;;;;;;;;5034796;28;20802;-63
2020/12/08 05:01:29;;;;;;;15.27;13.93;;;;;;;;;;5033704;28;20488;-63
2020/12/08 05:03:57;;;;;;;15.40;14.20;;;;;;;;;;5034541;28;20567;-63
2020/12/08 05:06:23;;;;;;;15.47;14.30;;;;;;;;;;5033506;28;20505;-63
2020/12/08 05:09:00;;;;;;;15.87;14.57;;;;;;;;;;5034340;28;20972;-62
2020/12/08 05:11:27;;;;;;;16.17;14.87;;;;;;;;;;5029918;28;20480;-63
2020/12/08 05:13:58;;;;;;;16.97;15.60;;;;;;;;;;5034170;28;20929;-63
2020/12/08 05:16:24;;;;;;;16.70;15.40;;;;;;;;;;5033354;28;20465;-63
2020/12/08 05:18:51;;;;;;;16.77;15.47;;;;;;;;;;5034404;28;20456;-64
2020/12/08 05:21:18;;;;;;;15.87;14.67;;;;;;;;;;5033676;28;20488;-64
2020/12/08 05:23:45;;;;;;;16.67;15.37;;;;;;;;;;5033436;28;20488;-64
2020/12/08 05:26:12;;;;;;;17.60;16.20;;;;;;;;;;5033718;28;20465;-64
2020/12/08 05:28:39;;;;;;;16.50;15.20;;;;;;;;;;5022068;28;20477;-64
2020/12/08 05:31:07;;;;;;;17.03;15.73;;;;;;;;;;5032794;28;20476;-64
2020/12/08 05:33:34;;;;;;;17.27;15.90;;;;;;;;;;5033471;28;20469;-63
2020/12/08 05:36:01;;;;;;;17.73;16.30;;;;;;;;;;5034128;28;20452;-63
2020/12/08 05:38:29;;;;;;;18.47;16.97;;;;;;;;;;5033259;28;20478;-63
2020/12/08 05:40:55;;;;;;;18.03;16.53;;;;;;;;;;5033722;28;20480;-64
2020/12/08 05:43:22;;;;;;;19.47;17.80;;;;;;;;;;5032861;28;21022;-63
2020/12/08 05:45:49;;;;;;;18.37;16.77;;;;;;;;;;5042374;28;20447;-63
2020/12/08 05:48:22;;;;;;;18.87;17.37;;;;;;;;;;5041331;28;20473;-63
2020/12/08 05:50:48;;;;;;;17.27;15.87;;;;;;;;;;5033900;28;20456;-63
2020/12/08 05:53:17;;;;;;;18.80;17.20;;;;;;;;;;5032043;28;20469;-63
2020/12/08 05:55:44;;;;;;;18.33;16.80;;;;;;;;;;5033041;28;20472;-63
2020/12/08 05:58:12;;;;;;;18.93;17.33;;;;;;;;;;5033009;28;20475;-63
2020/12/08 06:00:39;;;;;;;18.80;17.30;;;;;;;;;;5033237;28;20852;-63
2020/12/08 06:03:10;;;;;;;18.57;17.00;;;;;;;;;;5033915;28;20476;-63
2020/12/08 06:05:38;;;;;;;17.90;16.30;;;;;;;;;;5033480;28;20476;-63
2020/12/08 06:08:15;;;;;;;18.87;17.37;;;;;;;;;;5031585;28;20480;-63
2020/12/08 06:10:45;;;;;;;18.33;16.63;;;;;;;;;;5031198;28;20464;-63
2020/12/08 06:13:22;;;;;;;18.60;17.10;;;;;;;;;;5032959;28;20448;-63
2020/12/08 06:15:49;;;;;;;18.40;16.80;;;;;;;;;;5033666;28;20433;-63
2020/12/08 06:18:16;;;;;;;17.90;16.37;;;;;;;;;;5032890;28;20461;-63
2020/12/08 06:20:43;;;;;;;17.23;15.93;;;;;;;;;;5033318;28;20445;-63
2020/12/08 06:23:10;;;;;;;17.43;16.03;;;;;;;;;;5028119;28;20488;-63
2020/12/08 06:25:36;;;;;;;18.00;16.50;;;;;;;;;;5032190;28;20482;-63
2020/12/08 06:28:04;;;;;;;17.80;16.30;;;;;;;;;;5032408;28;20472;-63
2020/12/08 06:30:31;;;;;;;18.00;16.60;;;;;;;;;;5031966;28;20452;-63
2020/12/08 06:32:57;;;;;;;19.13;17.43;;;;;;;;;;5033450;28;20468;-63
2020/12/08 06:35:24;;;;;;;17.77;16.23;;;;;;;;;;5032240;28;20536;-62
2020/12/08 06:37:53;;;;;;;18.03;16.53;;;;;;;;;;5032101;28;20467;-63
2020/12/08 06:40:21;;;;;;;17.90;16.40;;;;;;;;;;5032191;28;20465;-62
2020/12/08 06:42:47;;;;;;;18.03;16.47;;;;;;;;;;5031809;28;20472;-64
2020/12/08 06:45:15;;;;;;;18.23;16.70;;;;;;;;;;5032202;28;20472;-63
2020/12/08 06:47:41;;;;;;;17.90;16.43;;;;;;;;;;5032720;28;20535;-63
2020/12/08 06:50:21;;;;;;;17.60;16.10;;;;;;;;;;5031644;28;20472;-63
2020/12/08 06:52:52;;;;;;;19.27;17.67;;;;;;;;;;5028743;28;20488;-63
2020/12/08 06:55:18;;;;;;;17.63;16.13;;;;;;;;;;5032122;28;20453;-62
2020/12/08 06:57:45;;;;;;;17.27;15.67;;;;;;;;;;5031386;28;20464;-63
2020/12/08 07:00:12;;;;;;;17.77;16.30;;;;;;;;;;5033009;28;20459;-63
2020/12/08 07:02:49;;;;;;;18.27;16.63;;;;;;;;;;5032377;28;20488;-63
2020/12/08 07:05:17;;;;;;;18.27;16.77;;;;;;;;;;5031689;28;20448;-63
2020/12/08 07:07:44;;;;;;;17.07;15.67;;;;;;;;;;5030996;28;20479;-63
2020/12/08 07:10:12;;;;;;;17.53;16.03;;;;;;;;;;5030987;28;20828;-63
2020/12/08 07:12:44;;;;;;;15.93;14.43;;;;;;;;;;5030656;28;20485;-63
2020/12/08 07:15:18;;;;;;;15.87;14.57;;;;;;;;;;5032122;28;20441;-63
2020/12/08 07:17:45;;;;;;;17.60;16.20;;;;;;;;;;5032725;28;20445;-63
2020/12/08 07:20:11;;;;;;;17.93;16.43;;;;;;;;;;5032015;28;20441;-63
2020/12/08 07:22:45;;;;;;;18.17;16.60;;;;;;;;;;5032739;28;20551;-63
2020/12/08 07:25:13;;;;;;;17.90;16.40;;;;;;;;;;5031816;28;20457;-63
2020/12/08 07:27:44;;;;;;;16.67;15.30;;;;;;;;;;5032392;28;20465;-63
2020/12/08 07:30:11;;;;;;;16.53;15.20;;;;;;;;;;5032591;28;20855;-63
2020/12/08 07:32:38;;;;;;;16.47;15.07;;;;;;;;;;5031716;28;20476;-63
2020/12/08 07:35:05;;;;;;;17.00;15.60;;;;;;;;;;5031921;28;20967;-64
2020/12/08 07:37:38;;;;;;;16.90;15.43;;;;;;;;;;5032188;28;20452;-62
2020/12/08 07:40:09;;;;;;;18.20;16.60;;;;;;;;;;5031974;28;20970;-62
2020/12/08 07:42:37;;;;;;;16.93;15.40;;;;;;;;;;5031314;28;20495;-64
2020/12/08 07:45:08;;;;;;;17.50;16.03;;;;;;;;;;5031777;28;20508;-63
2020/12/08 07:47:35;;;;;;;16.90;15.50;;;;;;;;;;5032586;28;20449;-63
2020/12/08 07:50:01;;;;;;;17.00;15.50;;;;;;;;;;5032357;28;20460;-63
2020/12/08 07:52:28;;;;;;;17.80;16.30;;;;;;;;;;5032240;28;20478;-63
2020/12/08 07:54:55;;;;;;;17.23;15.87;;;;;;;;;;5033539;28;20452;-63
2020/12/08 07:57:21;;;;;;;17.83;16.30;;;;;;;;;;5036007;28;20967;-64
2020/12/08 07:59:49;;;;;;;16.30;15.00;;;;;;;;;;5036164;28;20544;-63
2020/12/08 08:02:15;;;;;;;17.37;16.00;;;;;;;;;;5036188;28;20479;-64
2020/12/08 08:04:42;;;;;;;17.47;16.07;;;;;;;;;;5035136;28;21023;-63
2020/12/08 08:07:09;;;;;;;17.97;16.33;;;;;;;;;;5036411;28;20451;-63
2020/12/08 08:09:35;;;;;;;17.30;15.80;;;;;;;;;;5034660;28;20987;-63
2020/12/08 08:12:03;;;;;;;18.10;16.63;;;;;;;;;;5035167;28;20477;-64
2020/12/08 08:14:30;;;;;;;17.87;16.23;;;;;;;;;;5035418;28;20449;-63
2020/12/08 08:16:57;;;;;;;17.10;15.60;;;;;;;;;;5036146;28;20467;-64
2020/12/08 08:19:24;;;;;;;18.37;16.83;;;;;;;;;;5034130;28;20469;-64
2020/12/08 08:21:51;;;;;;;18.30;16.80;;;;;;;;;;5032426;28;21002;-63
2020/12/08 08:24:17;;;;;;;17.63;16.13;;;;;;;;;;5027019;28;20833;-64
2020/12/08 08:26:44;;;;;;;17.07;15.60;;;;;;;;;;5031832;28;20458;-64
2020/12/08 08:29:10;;;;;;;16.60;15.10;;;;;;;;;;5034966;28;20541;-64
2020/12/08 08:31:37;;;;;;;17.30;15.90;;;;;;;;;;5035216;28;20836;-64
2020/12/08 08:34:05;;;;;;;17.07;15.27;;;;;;;;;;5034653;28;20528;-65
2020/12/08 08:36:31;;;;;;;17.37;15.77;;;;;;;;;;5034999;28;20451;-64
2020/12/08 08:38:58;;;;;;;18.00;16.50;;;;;;;;;;5034795;28;20829;-63
2020/12/08 08:41:24;;;;;;;16.93;15.53;;;;;;;;;;5033958;28;20483;-63
2020/12/08 08:43:51;;;;;;;18.20;16.70;;;;;;;;;;5034855;28;20491;-63
2020/12/08 08:46:18;;;;;;;17.87;16.03;;;;;;;;;;5034810;28;20532;-63
2020/12/08 08:48:45;;;;;;;17.43;15.93;;;;;;;;;;5034692;28;20804;-63
2020/12/08 08:51:13;;;;;;;18.70;17.20;;;;;;;;;;5033263;28;20581;-63
2020/12/08 08:53:39;;;;;;;17.13;15.63;;;;;;;;;;5033641;28;20956;-64
2020/12/08 08:56:06;;;;;;;17.70;16.10;;;;;;;;;;5034694;28;20454;-63
2020/12/08 08:58:32;;;;;;;18.77;17.27;;;;;;;;;;5034481;28;20952;-63
2020/12/08 09:00:59;;;;;;;17.63;16.13;;;;;;;;;;5034298;28;20469;-64
2020/12/08 09:03:26;;;;;;;17.83;16.13;;;;;;;;;;5046553;28;21010;-63
2020/12/08 09:05:53;;;;;;;18.10;16.60;;;;;;;;;;5054579;28;20444;-62
2020/12/08 09:08:24;;;;;;;27.10;11.80;;;;;;;;;;5034329;28;20464;-64
2020/12/08 09:10:50;;;;;;;18.87;9.47;;;;;;;;;;5030892;28;20451;-62
2020/12/08 09:13:17;;;;;;;18.50;8.17;;;;;;;;;;5030820;28;20448;-61
2020/12/08 09:15:44;;;;;;;12.63;8.40;;;;;;;;;;5034267;28;20451;-61
2020/12/08 09:18:11;;;;;;;11.50;8.20;;;;;;;;;;5034635;28;20452;-61
2020/12/08 09:20:37;;;;;;;11.70;7.00;;;;;;;;;;5034118;28;20455;-62
2020/12/08 09:23:04;;;;;;;9.40;6.63;;;;;;;;;;5033756;28;20448;-61
2020/12/08 09:25:32;;;;;;;7.50;5.73;;;;;;;;;;5034298;28;20445;-62
2020/12/08 09:27:58;;;;;;;9.60;5.70;;;;;;;;;;5034358;28;20480;-63
2020/12/08 09:30:25;;;;;;;15.07;13.93;;;;;;;;;;5023989;28;20457;-64
2020/12/08 09:32:52;;;;;;;17.80;16.40;;;;;;;;;;5026757;28;20487;-62
2020/12/08 09:35:19;;;;;;;18.57;17.07;;;;;;;;;;5033031;28;20453;-62
2020/12/08 09:37:45;;;;;;;18.00;16.43;;;;;;;;;;5034403;28;20451;-62
2020/12/08 09:40:12;;;;;;;18.13;16.50;;;;;;;;;;5032670;28;20464;-62
2020/12/08 09:42:40;;;;;;;16.83;15.37;;;;;;;;;;5033662;28;20490;-62
2020/12/08 09:45:07;;;;;;;19.50;17.80;;;;;;;;;;5033197;28;20559;-62
2020/12/08 09:47:34;;;;;;;19.57;17.97;;;;;;;;;;5034606;28;20455;-62
2020/12/08 09:50:01;;;;;;;18.17;16.53;;;;;;;;;;5033523;28;20452;-62
2020/12/08 09:52:28;;;;;;;19.67;17.97;;;;;;;;;;5033493;28;20477;-62
2020/12/08 09:54:55;;;;;;;19.57;17.97;;;;;;;;;;5033744;28;20445;-62
2020/12/08 09:57:23;;;;;;;20.03;18.30;;;;;;;;;;5033840;28;20456;-62
2020/12/08 09:59:51;;;;;;;19.97;18.27;;;;;;;;;;5033533;28;21005;-62
2020/12/08 10:02:19;;;;;;;20.10;18.30;;;;;;;;;;5033824;28;20469;-62
2020/12/08 10:04:45;;;;;;;19.70;18.00;;;;;;;;;;5033490;28;20585;-63
2020/12/08 10:07:14;;;;;;;21.47;19.67;;;;;;;;;;5032540;28;20457;-63
2020/12/08 10:09:41;;;;;;;21.27;19.33;;;;;;;;;;5028719;28;21018;-63
2020/12/08 10:12:08;;;;;;;20.50;18.60;;;;;;;;;;5013924;28;20475;-62
2020/12/08 10:14:34;;;;;;;20.40;18.60;;;;;;;;;;5029091;28;20464;-62
2020/12/08 10:17:02;;;;;;;33.00;29.50;;;;;;;;;;5032424;28;20455;-62
2020/12/08 10:19:29;;;;;;;21.43;19.63;;;;;;;;;;5017658;28;20460;-62
2020/12/08 10:21:56;;;;;;;21.63;19.73;;;;;;;;;;5032256;28;20476;-62
2020/12/08 10:24:22;;;;;;;21.27;19.47;;;;;;;;;;5033715;28;20583;-63
2020/12/08 10:26:49;;;;;;;22.50;20.60;;;;;;;;;;5033312;28;20445;-63
2020/12/08 10:29:16;;;;;;;21.33;19.47;;;;;;;;;;5032947;28;20452;-63
2020/12/08 10:31:43;;;;;;;21.50;19.60;;;;;;;;;;5033504;28;20468;-63
2020/12/08 10:34:10;;;;;;;22.47;20.50;;;;;;;;;;5032946;28;20449;-62
2020/12/08 10:36:37;;;;;;;22.23;20.33;;;;;;;;;;5033467;28;20451;-62
2020/12/08 10:39:04;;;;;;;22.80;20.70;;;;;;;;;;5033120;28;20457;-62
2020/12/08 10:41:31;;;;;;;23.40;21.30;;;;;;;;;;5032408;28;20999;-62
2020/12/08 10:43:57;;;;;;;22.50;20.60;;;;;;;;;;5032842;28;20487;-62
2020/12/08 10:46:24;;;;;;;22.87;20.97;;;;;;;;;;5033399;28;20459;-62
2020/12/08 10:48:50;;;;;;;22.60;20.40;;;;;;;;;;5083071;22;20486;-70
2020/12/08 10:51:20;;;;;;;23.60;21.50;;;;;;;;;;5065428;28;20448;-70
2020/12/08 10:53:47;;;;;;;24.57;22.27;;;;;;;;;;5072759;28;20482;-70
2020/12/08 10:56:17;;;;;;;23.33;21.13;;;;;;;;;;5072971;28;20451;-72
2020/12/08 10:58:43;;;;;;;24.70;22.70;;;;;;;;;;5061401;28;20468;-72
2020/12/08 11:01:10;;;;;;;21.73;19.83;;;;;;;;;;5054088;28;20494;-72
2020/12/08 11:03:37;;;;;;;22.30;20.40;;;;;;;;;;5052483;28;20480;-72
2020/12/08 11:06:03;;;;;;;24.40;22.40;;;;;;;;;;5054999;28;20466;-72
2020/12/08 11:08:31;;;;;;;24.03;22.03;;;;;;;;;;5053522;28;20464;-72
2020/12/08 11:10:57;;;;;;;24.47;22.47;;;;;;;;;;5055600;28;20460;-73
2020/12/08 11:13:24;;;;;;;24.30;22.20;;;;;;;;;;5055322;28;20454;-73
2020/12/08 11:15:51;;;;;;;24.20;22.10;;;;;;;;;;5053886;28;20448;-73
2020/12/08 11:18:17;;;;;;;24.50;22.30;;;;;;;;;;5052691;28;20468;-74
2020/12/08 11:20:44;;;;;;;25.80;23.50;;;;;;;;;;5053052;28;20451;-74
2020/12/08 11:23:11;;;;;;;23.73;21.70;;;;;;;;;;5052049;28;20458;-74
2020/12/08 11:25:38;;;;;;;25.17;22.90;;;;;;;;;;5052570;28;20859;-74
2020/12/08 11:28:05;;;;;;;24.93;22.53;;;;;;;;;;5052187;28;20975;-74
2020/12/08 11:30:32;;;;;;;23.40;21.40;;;;;;;;;;5053231;28;20459;-74
2020/12/08 11:32:58;;;;;;;26.53;24.00;;;;;;;;;;5054164;28;20955;-73
2020/12/08 11:35:25;;;;;;;25.97;23.70;;;;;;;;;;5053215;28;20451;-73
2020/12/08 11:37:51;;;;;;;26.43;24.13;;;;;;;;;;5052057;28;21002;-74
2020/12/08 11:40:18;;;;;;;26.07;23.87;;;;;;;;;;5049062;28;20482;-74
2020/12/08 11:42:45;;;;;;;25.37;23.20;;;;;;;;;;5047426;28;20456;-73
2020/12/08 11:45:12;;;;;;;26.03;23.83;;;;;;;;;;5041574;28;20484;-73
2020/12/08 11:47:39;;;;;;;24.77;22.70;;;;;;;;;;5051499;28;20985;-74
2020/12/08 11:50:06;;;;;;;24.67;22.57;;;;;;;;;;5051534;28;20833;-74
2020/12/08 11:52:32;;;;;;;25.37;23.33;;;;;;;;;;5051106;28;20463;-74
2020/12/08 11:54:59;;;;;;;24.90;22.80;;;;;;;;;;5051468;28;20451;-74
2020/12/08 11:57:26;;;;;;;25.43;23.13;;;;;;;;;;5045753;28;20458;-74
2020/12/08 11:59:53;;;;;;;25.43;23.30;;;;;;;;;;5051294;28;20448;-74
2020/12/08 12:02:20;;;;;;;27.33;24.90;;;;;;;;;;5051331;28;20462;-73
2020/12/08 12:04:46;;;;;;;28.93;26.37;;;;;;;;;;5051080;28;20479;-73
2020/12/08 12:07:13;;;;;;;28.43;25.93;;;;;;;;;;5051631;28;20460;-73
2020/12/08 12:09:39;;;;;;;26.30;24.10;;;;;;;;;;5051453;28;20447;-74
2020/12/08 12:12:06;;;;;;;27.37;24.90;;;;;;;;;;5051393;28;20459;-73
2020/12/08 12:14:33;;;;;;;28.40;26.00;;;;;;;;;;5051002;28;20534;-73
2020/12/08 12:17:00;;;;;;;29.13;26.53;;;;;;;;;;5049432;28;20468;-74
2020/12/08 12:19:27;;;;;;;29.43;26.93;;;;;;;;;;5051087;28;20475;-74
2020/12/08 12:21:53;;;;;;;28.53;26.13;;;;;;;;;;5051225;28;20466;-74
2020/12/08 12:24:20;;;;;;;27.70;25.13;;;;;;;;;;5051020;28;20836;-74
2020/12/08 12:26:47;;;;;;;27.70;25.40;;;;;;;;;;5050552;28;20448;-74
2020/12/08 12:29:14;;;;;;;28.27;25.77;;;;;;;;;;5051197;28;21012;-74
2020/12/08 12:31:43;;;;;;;29.20;26.67;;;;;;;;;;5050875;28;20455;-74
2020/12/08 12:34:11;;;;;;;29.37;26.67;;;;;;;;;;5050682;28;20462;-74
2020/12/08 12:36:37;;;;;;;30.23;27.57;;;;;;;;;;5050141;28;20590;-73
2020/12/08 12:39:04;;;;;;;30.00;27.20;;;;;;;;;;5051333;28;20468;-74
2020/12/08 12:41:31;;;;;;;29.73;27.03;;;;;;;;;;5053834;28;20922;-74
2020/12/08 12:43:58;;;;;;;31.83;28.90;;;;;;;;;;5054665;28;20480;-74
2020/12/08 12:46:24;;;;;;;30.40;27.67;;;;;;;;;;5049572;28;20449;-73
2020/12/08 12:48:51;;;;;;;29.87;27.17;;;;;;;;;;5054965;28;20491;-74
2020/12/08 12:51:23;;;;;;;29.33;26.70;;;;;;;;;;5055317;28;20459;-74
2020/12/08 12:53:50;;;;;;;29.83;27.13;;;;;;;;;;5046357;28;20455;-73
2020/12/08 12:56:19;;;;;;;31.30;28.57;;;;;;;;;;5036252;28;20458;-74
2020/12/08 12:58:45;;;;;;;30.97;28.17;;;;;;;;;;5053863;28;20529;-74
2020/12/08 13:01:12;;;;;;;29.17;26.47;;;;;;;;;;5054565;28;20478;-73
2020/12/08 13:03:39;;;;;;;30.17;27.40;;;;;;;;;;5053464;28;20460;-74
2020/12/08 13:06:07;;;;;;;30.47;27.47;;;;;;;;;;5054158;28;20459;-74
2020/12/08 13:08:35;;;;;;;31.57;28.67;;;;;;;;;;5053467;28;20475;-71
2020/12/08 13:11:01;;;;;;;30.70;27.80;;;;;;;;;;5054524;28;20543;-74
2020/12/08 13:13:28;;;;;;;31.50;28.57;;;;;;;;;;5053970;28;20483;-73
2020/12/08 13:15:55;;;;;;;31.87;28.77;;;;;;;;;;5054204;28;20809;-74
2020/12/08 13:18:21;;;;;;;32.23;29.27;;;;;;;;;;5053266;28;20499;-74
2020/12/08 13:20:48;;;;;;;34.40;31.30;;;;;;;;;;5052465;28;20507;-74
2020/12/08 13:23:15;;;;;;;34.77;31.40;;;;;;;;;;5054259;28;20452;-74
2020/12/08 13:25:42;;;;;;;34.43;31.27;;;;;;;;;;5055239;28;20490;-75
2020/12/08 13:28:09;;;;;;;36.07;32.57;;;;;;;;;;5055320;28;21016;-75
2020/12/08 13:30:35;;;;;;;35.37;31.97;;;;;;;;;;5055659;28;20450;-73
2020/12/08 13:33:12;;;;;;;36.67;33.13;;;;;;;;;;5051505;28;21010;-74
2020/12/08 13:35:40;;;;;;;36.57;32.93;;;;;;;;;;5036656;28;20421;-75
2020/12/08 13:38:07;;;;;;;33.70;30.20;;;;;;;;;;5054061;28;20832;-74
2020/12/08 13:40:33;;;;;;;37.60;33.73;;;;;;;;;;5053956;28;20976;-76
2020/12/08 13:43:01;;;;;;;37.47;33.63;;;;;;;;;;5054778;28;20451;-75
2020/12/08 13:45:27;;;;;;;38.30;34.50;;;;;;;;;;5053764;28;20484;-74
2020/12/08 13:47:54;;;;;;;37.80;33.57;;;;;;;;;;5050683;28;20498;-74
2020/12/08 13:50:21;;;;;;;42.93;38.30;;;;;;;;;;5053054;28;20966;-75
2020/12/08 13:52:47;;;;;;;43.03;36.87;;;;;;;;;;5052604;28;20455;-73
2020/12/08 13:55:14;;;;;;;44.40;38.83;;;;;;;;;;5053529;28;20459;-73
2020/12/08 13:57:41;;;;;;;44.50;39.40;;;;;;;;;;5053418;28;20986;-73
2020/12/08 14:00:08;;;;;;;44.47;38.03;;;;;;;;;;5053340;28;20535;-74
2020/12/08 14:02:35;;;;;;;46.57;40.27;;;;;;;;;;5061975;28;20448;-72
2020/12/08 14:05:01;;;;;;;45.47;38.03;;;;;;;;;;5055722;28;20494;-74
2020/12/08 14:07:28;;;;;;;48.53;40.30;;;;;;;;;;5053393;28;20494;-73
2020/12/08 14:09:55;;;;;;;45.57;40.30;;;;;;;;;;5042834;28;20459;-73
2020/12/08 14:12:21;;;;;;;47.50;41.70;;;;;;;;;;5052670;28;20484;-73
2020/12/08 14:14:48;;;;;;;48.03;37.53;;;;;;;;;;5052762;28;20440;-73
2020/12/08 14:17:15;;;;;;;56.17;44.40;;;;;;;;;;5053356;28;20463;-73